createdAt,value
2022-12-29T00:01:13.219Z,101810.94
2022-12-29T00:03:47.272Z,101804.53
2022-12-29T00:06:14.054Z,101795.50
2022-12-29T00:08:42.982Z,101790.84
2022-12-29T00:11:35.667Z,101790.59
2022-12-29T00:14:26.049Z,101791.25
2022-12-29T00:16:53.021Z,101798.06
2022-12-29T00:19:19.920Z,101785.94
2022-12-29T00:21:46.676Z,101786.13
2022-12-29T00:24:19.657Z,101792.69
2022-12-29T00:27:10.257Z,101792.13
2022-12-29T00:29:37.064Z,101788.47
2022-12-29T00:32:07.616Z,101778.53
2022-12-29T00:34:34.441Z,101776.06
2022-12-29T00:37:01.573Z,101770.66
2022-12-29T00:39:28.224Z,101772.44
2022-12-29T00:41:54.881Z,101770.41
2022-12-29T00:44:23.370Z,101776.31
2022-12-29T00:46:53.568Z,101775.34
2022-12-29T00:49:23.429Z,101778.47
2022-12-29T00:52:01.915Z,101777.88
2022-12-29T00:54:34.141Z,101776.84
2022-12-29T00:57:10.407Z,101770.44
2022-12-29T00:59:43.521Z,101776.97
2022-12-29T01:02:15.906Z,101765.38
2022-12-29T01:04:43.484Z,101767.88
2022-12-29T01:07:12.636Z,101772.84
2022-12-29T01:09:39.289Z,101760.41
2022-12-29T01:12:07.424Z,101758.59
2022-12-29T01:14:36.454Z,101764.31
2022-12-29T01:17:03.155Z,101749.72
2022-12-29T01:19:33.808Z,101753.19
2022-12-29T01:22:00.742Z,101760.41
2022-12-29T01:24:27.611Z,101756.13
2022-12-29T01:26:57.074Z,101768.16
2022-12-29T01:29:23.859Z,101771.63
2022-12-29T01:31:52.003Z,101759.44
2022-12-29T01:34:24.098Z,101770.09
2022-12-29T01:36:51.265Z,101772.44
2022-12-29T01:39:20.412Z,101774.34
2022-12-29T01:41:50.050Z,101772.69
2022-12-29T01:44:54.181Z,101777.44
2022-12-29T01:47:35.658Z,101783.09
2022-12-29T01:50:09.423Z,101775.22
2022-12-29T01:52:48.837Z,101781.63
2022-12-29T01:55:20.344Z,101779.34
2022-12-29T01:57:51.314Z,101780.72
2022-12-29T02:00:18.579Z,101772.28
2022-12-29T02:03:04.067Z,101768.84
2022-12-29T02:05:43.362Z,101768.59
2022-12-29T02:08:11.138Z,101768.03
2022-12-29T02:10:41.163Z,101761.94
2022-12-29T02:13:08.094Z,101764.31
2022-12-29T02:15:49.685Z,101765.41
2022-12-29T02:18:26.158Z,101768.72
2022-12-29T02:21:14.536Z,101763.81
2022-12-29T02:24:14.159Z,101759.19
2022-12-29T02:27:09.749Z,101759.53
2022-12-29T02:30:07.165Z,101747.47
2022-12-29T02:32:45.649Z,101754.16
2022-12-29T02:35:39.718Z,101741.00
2022-12-29T02:38:24.740Z,101746.72
2022-12-29T02:41:30.959Z,101743.94
2022-12-29T02:44:23.409Z,101741.34
2022-12-29T02:47:16.239Z,101739.53
2022-12-29T02:50:05.498Z,101742.88
2022-12-29T02:52:38.782Z,101741.22
2022-12-29T02:55:06.050Z,101750.06
2022-12-29T02:57:35.785Z,101735.84
2022-12-29T03:00:15.682Z,101725.59
2022-12-29T03:03:20.325Z,101710.94
2022-12-29T03:06:11.429Z,101711.06
2022-12-29T03:09:02.324Z,101709.91
2022-12-29T03:11:39.537Z,101708.81
2022-12-29T03:14:31.355Z,101716.72
2022-12-29T03:17:12.645Z,101707.53
2022-12-29T03:19:51.351Z,101703.81
2022-12-29T03:22:28.897Z,101703.56
2022-12-29T03:25:28.494Z,101709.91
2022-12-29T03:28:00.269Z,101698.03
2022-12-29T03:30:30.590Z,101695.53
2022-12-29T03:33:02.809Z,101691.09
2022-12-29T03:35:36.063Z,101694.44
2022-12-29T03:38:11.838Z,101690.28
2022-12-29T03:40:49.068Z,101705.63
2022-12-29T03:43:17.016Z,101712.28
2022-12-29T03:45:45.058Z,101699.97
2022-12-29T03:48:14.867Z,101702.47
2022-12-29T03:50:41.957Z,101702.66
2022-12-29T03:53:09.107Z,101689.69
2022-12-29T03:55:35.877Z,101696.59
2022-12-29T03:58:05.197Z,101697.31
2022-12-29T04:00:31.932Z,101694.31
2022-12-29T04:03:04.451Z,101692.56
2022-12-29T04:05:31.318Z,101687.06
2022-12-29T04:07:58.111Z,101689.00
2022-12-29T04:10:25.255Z,101679.16
2022-12-29T04:12:55.728Z,101685.00
2022-12-29T04:15:22.525Z,101688.03
2022-12-29T04:17:49.252Z,101697.19
2022-12-29T04:20:19.011Z,101700.47
2022-12-29T04:22:45.885Z,101696.06
2022-12-29T04:27:53.222Z,101694.91
2022-12-29T04:30:21.084Z,101695.19
2022-12-29T04:32:47.846Z,101698.28
2022-12-29T04:35:14.616Z,101697.69
2022-12-29T04:37:41.414Z,101708.78
2022-12-29T04:40:08.954Z,101702.84
2022-12-29T04:42:35.977Z,101700.47
2022-12-29T04:45:02.942Z,101709.06
2022-12-29T04:47:32.677Z,101712.41
2022-12-29T04:49:59.410Z,101721.94
2022-12-29T04:52:32.340Z,101723.31
2022-12-29T04:54:59.075Z,101720.69
2022-12-29T04:57:26.138Z,101717.50
2022-12-29T04:59:52.923Z,101718.69
2022-12-29T05:02:19.838Z,101723.94
2022-12-29T05:04:46.841Z,101717.44
2022-12-29T05:07:13.750Z,101711.09
2022-12-29T05:09:49.949Z,101714.56
2022-12-29T05:12:16.529Z,101717.19
2022-12-29T05:14:44.673Z,101706.66
2022-12-29T05:17:14.137Z,101702.94
2022-12-29T05:19:41.254Z,101699.63
2022-12-29T05:22:10.544Z,101689.53
2022-12-29T05:24:37.209Z,101700.47
2022-12-29T05:27:03.877Z,101706.88
2022-12-29T05:29:33.684Z,101705.09
2022-12-29T05:32:00.327Z,101698.84
2022-12-29T05:34:27.035Z,101707.25
2022-12-29T05:36:53.772Z,101701.88
2022-12-29T05:39:25.151Z,101706.44
2022-12-29T05:41:51.881Z,101709.63
2022-12-29T05:44:18.553Z,101711.13
2022-12-29T05:46:45.397Z,101729.66
2022-12-29T05:49:14.797Z,101727.88
2022-12-29T05:51:43.695Z,101719.75
2022-12-29T05:54:12.915Z,101717.28
2022-12-29T05:56:42.157Z,101725.75
2022-12-29T05:59:08.889Z,101718.25
2022-12-29T06:01:35.650Z,101711.09
2022-12-29T06:04:02.583Z,101715.81
2022-12-29T06:06:29.451Z,101711.53
2022-12-29T06:08:56.390Z,101722.28
2022-12-29T06:11:23.018Z,101726.41
2022-12-29T06:13:52.396Z,101721.09
2022-12-29T06:16:19.263Z,101719.56
2022-12-29T06:18:46.844Z,101720.94
2022-12-29T06:21:13.800Z,101722.88
2022-12-29T06:23:41.065Z,101715.97
2022-12-29T06:26:08.934Z,101731.06
2022-12-29T06:28:35.659Z,101728.41
2022-12-29T06:31:05.473Z,101727.94
2022-12-29T06:33:35.220Z,101726.72
2022-12-29T06:36:04.355Z,101722.88
2022-12-29T06:38:31.091Z,101721.22
2022-12-29T06:41:03.902Z,101722.19
2022-12-29T06:43:30.534Z,101729.09
2022-12-29T06:45:57.400Z,101722.72
2022-12-29T06:48:24.150Z,101722.88
2022-12-29T06:50:51.635Z,101722.59
2022-12-29T06:53:21.558Z,101736.78
2022-12-29T06:55:48.335Z,101730.94
2022-12-29T06:58:15.035Z,101733.44
2022-12-29T07:00:41.747Z,101734.97
2022-12-29T07:03:08.553Z,101731.78
2022-12-29T07:05:35.196Z,101740.75
2022-12-29T07:08:01.850Z,101735.88
2022-12-29T07:10:28.843Z,101738.25
2022-12-29T07:12:59.562Z,101739.03
2022-12-29T07:15:26.255Z,101745.56
2022-12-29T07:17:52.996Z,101746.25
2022-12-29T07:20:26.213Z,101752.53
2022-12-29T07:22:53.525Z,101753.97
2022-12-29T07:25:26.549Z,101762.34
2022-12-29T07:28:08.187Z,101764.84
2022-12-29T07:30:37.395Z,101766.22
2022-12-29T07:33:04.162Z,101773.47
2022-12-29T07:35:34.980Z,101763.16
2022-12-29T07:38:09.359Z,101764.34
2022-12-29T07:40:50.198Z,101764.34
2022-12-29T07:43:16.841Z,101761.50
2022-12-29T07:45:43.797Z,101771.44
2022-12-29T07:48:10.547Z,101773.09
2022-12-29T07:50:37.897Z,101774.19
2022-12-29T07:53:10.508Z,101779.72
2022-12-29T07:55:37.211Z,101771.28
2022-12-29T07:58:04.201Z,101780.09
2022-12-29T08:00:30.810Z,101776.56
2022-12-29T08:02:57.464Z,101777.47
2022-12-29T08:05:24.225Z,101779.34
2022-12-29T08:07:53.676Z,101773.28
2022-12-29T08:10:20.353Z,101776.34
2022-12-29T08:12:50.080Z,101778.84
2022-12-29T08:15:16.756Z,101778.66
2022-12-29T08:17:46.329Z,101779.94
2022-12-29T08:20:12.997Z,101777.16
2022-12-29T08:22:41.964Z,101774.97
2022-12-29T08:25:11.675Z,101775.88
2022-12-29T08:27:38.300Z,101773.94
2022-12-29T08:30:08.116Z,101779.09
2022-12-29T08:32:34.889Z,101784.78
2022-12-29T08:35:02.739Z,101780.91
2022-12-29T08:37:31.480Z,101778.75
2022-12-29T08:39:58.575Z,101772.53
2022-12-29T08:42:25.242Z,101762.97
2022-12-29T08:44:51.845Z,101767.84
2022-12-29T08:47:18.468Z,101761.34
2022-12-29T08:49:45.151Z,101762.44
2022-12-29T08:52:11.821Z,101767.41
2022-12-29T08:54:41.371Z,101772.41
2022-12-29T08:57:08.040Z,101772.94
2022-12-29T08:59:35.770Z,101777.50
2022-12-29T09:02:09.163Z,101776.94
2022-12-29T09:04:36.182Z,101785.09
2022-12-29T09:07:03.106Z,101792.44
2022-12-29T09:09:29.845Z,101786.06
2022-12-29T09:11:58.882Z,101788.75
2022-12-29T09:14:26.199Z,101790.56
2022-12-29T09:16:53.752Z,101793.84
2022-12-29T09:19:20.519Z,101789.84
2022-12-29T09:21:50.014Z,101794.22
2022-12-29T09:24:16.699Z,101791.97
2022-12-29T09:26:46.934Z,101799.47
2022-12-29T09:29:13.969Z,101805.44
2022-12-29T09:31:40.632Z,101809.47
2022-12-29T09:34:07.394Z,101814.75
2022-12-29T09:36:34.129Z,101808.66
2022-12-29T09:39:00.814Z,101796.16
2022-12-29T09:42:03.599Z,101801.03
2022-12-29T09:44:50.938Z,101794.81
2022-12-29T09:47:20.319Z,101802.75
2022-12-29T09:49:56.140Z,101799.84
2022-12-29T09:52:25.137Z,101803.16
2022-12-29T09:55:12.003Z,101795.25
2022-12-29T09:57:53.738Z,101804.09
2022-12-29T10:00:34.315Z,101805.81
2022-12-29T10:03:11.095Z,101793.81
2022-12-29T10:05:51.230Z,101786.41
2022-12-29T10:08:49.249Z,101790.16
2022-12-29T10:11:21.840Z,101786.31
2022-12-29T10:14:14.050Z,101788.41
2022-12-29T10:16:51.755Z,101780.66
2022-12-29T10:19:33.297Z,101781.38
2022-12-29T10:22:50.267Z,101785.13
2022-12-29T10:25:20.944Z,101785.56
2022-12-29T10:27:57.172Z,101779.47
2022-12-29T10:30:24.756Z,101776.94
2022-12-29T10:32:56.515Z,101776.34
2022-12-29T10:35:38.817Z,101775.28
2022-12-29T10:38:25.114Z,101787.47
2022-12-29T10:41:01.748Z,101775.16
2022-12-29T10:43:31.637Z,101774.78
2022-12-29T10:46:10.623Z,101763.56
2022-12-29T10:48:37.671Z,101767.28
2022-12-29T10:51:06.835Z,101767.69
2022-12-29T10:53:43.288Z,101758.06
2022-12-29T10:56:22.635Z,101760.25
2022-12-29T10:58:51.181Z,101753.31
2022-12-29T11:01:19.353Z,101752.13
2022-12-29T11:04:13.460Z,101748.47
2022-12-29T11:06:46.496Z,101754.31
2022-12-29T11:09:32.366Z,101746.22
2022-12-29T11:12:27.298Z,101758.72
2022-12-29T11:15:08.958Z,101753.63
2022-12-29T11:17:50.275Z,101738.44
2022-12-29T11:20:33.021Z,101754.13
2022-12-29T11:23:00.652Z,101734.84
2022-12-29T11:25:27.763Z,101735.78
2022-12-29T11:28:16.661Z,101735.91
2022-12-29T11:30:47.006Z,101729.03
2022-12-29T11:33:13.682Z,101729.28
2022-12-29T11:35:44.276Z,101729.53
2022-12-29T11:38:36.355Z,101729.50
2022-12-29T11:41:10.759Z,101729.19
2022-12-29T11:43:44.822Z,101723.53
2022-12-29T11:46:37.930Z,101716.72
2022-12-29T11:49:05.346Z,101713.50
2022-12-29T11:51:48.215Z,101708.31
2022-12-29T11:54:34.768Z,101698.13
2022-12-29T11:57:16.411Z,101685.81
2022-12-29T11:59:49.419Z,101694.91
2022-12-29T12:02:21.895Z,101690.03
2022-12-29T12:04:54.951Z,101685.41
2022-12-29T12:07:29.816Z,101679.75
2022-12-29T12:10:07.778Z,101668.31
2022-12-29T12:13:00.049Z,101669.38
2022-12-29T12:15:39.173Z,101669.84
2022-12-29T12:18:24.041Z,101663.50
2022-12-29T12:20:58.692Z,101664.03
2022-12-29T12:24:11.830Z,101668.16
2022-12-29T12:27:24.142Z,101663.88
2022-12-29T12:30:04.601Z,101670.19
2022-12-29T12:32:45.654Z,101661.84
2022-12-29T12:35:21.747Z,101665.47
2022-12-29T12:38:16.715Z,101661.13
2022-12-29T12:40:51.410Z,101656.25
2022-12-29T12:43:38.260Z,101661.88
2022-12-29T12:46:17.101Z,101642.03
2022-12-29T12:49:25.358Z,101640.16
2022-12-29T12:52:17.170Z,101633.69
2022-12-29T12:55:08.615Z,101640.53
2022-12-29T12:58:14.708Z,101633.03
2022-12-29T13:01:27.160Z,101633.31
2022-12-29T13:04:29.514Z,101629.63
2022-12-29T13:07:48.171Z,101627.75
2022-12-29T13:10:20.634Z,101626.63
2022-12-29T13:13:18.313Z,101622.63
2022-12-29T13:16:14.246Z,101617.88
2022-12-29T13:18:59.477Z,101624.22
2022-12-29T13:21:32.501Z,101618.94
2022-12-29T13:24:20.843Z,101621.03
2022-12-29T13:27:10.525Z,101617.44
2022-12-29T13:29:52.114Z,101626.16
2022-12-29T13:32:21.480Z,101625.56
2022-12-29T13:35:12.926Z,101637.06
2022-12-29T13:37:59.249Z,101626.66
2022-12-29T13:40:30.030Z,101634.06
2022-12-29T13:42:58.358Z,101629.25
2022-12-29T13:45:27.948Z,101641.44
2022-12-29T13:48:23.247Z,101633.16
2022-12-29T13:50:56.586Z,101642.38
2022-12-29T13:53:58.858Z,101640.84
2022-12-29T13:56:34.065Z,101642.78
2022-12-29T13:59:26.913Z,101651.97
2022-12-29T14:02:27.399Z,101637.31
2022-12-29T14:05:00.145Z,101648.75
2022-12-29T14:07:27.301Z,101655.00
2022-12-29T14:09:58.377Z,101650.53
2022-12-29T14:12:39.398Z,101641.06
2022-12-29T14:15:11.987Z,101656.59
2022-12-29T14:17:42.320Z,101651.59
2022-12-29T14:20:25.822Z,101652.16
2022-12-29T14:23:10.780Z,101658.25
2022-12-29T14:25:59.151Z,101646.44
2022-12-29T14:28:29.072Z,101638.84
2022-12-29T14:30:58.480Z,101641.84
2022-12-29T14:33:32.458Z,101639.53
2022-12-29T14:36:20.922Z,101643.41
2022-12-29T14:38:51.171Z,101646.13
2022-12-29T14:41:25.826Z,101649.59
2022-12-29T14:43:58.855Z,101652.41
2022-12-29T14:46:26.559Z,101635.50
2022-12-29T14:49:03.017Z,101633.13
2022-12-29T14:51:36.978Z,101632.63
2022-12-29T14:54:32.526Z,101630.81
2022-12-29T14:57:02.012Z,101633.59
2022-12-29T14:59:31.323Z,101637.09
2022-12-29T15:01:58.435Z,101635.19
2022-12-29T15:04:33.897Z,101636.22
2022-12-29T15:07:02.121Z,101635.53
2022-12-29T15:09:37.151Z,101623.41
2022-12-29T15:12:34.887Z,101625.69
2022-12-29T15:15:01.967Z,101623.34
2022-12-29T15:17:34.098Z,101623.88
2022-12-29T15:20:17.754Z,101626.13
2022-12-29T15:23:19.018Z,101631.94
2022-12-29T15:25:59.946Z,101634.09
2022-12-29T15:28:28.102Z,101625.69
2022-12-29T15:31:04.062Z,101628.00
2022-12-29T15:33:31.352Z,101629.00
2022-12-29T15:36:04.654Z,101621.69
2022-12-29T15:38:38.582Z,101620.94
2022-12-29T15:41:26.354Z,101625.13
2022-12-29T15:44:07.989Z,101628.19
2022-12-29T15:46:35.042Z,101630.50
2022-12-29T15:49:07.909Z,101624.72
2022-12-29T15:51:40.378Z,101628.19
2022-12-29T15:54:15.882Z,101626.44
2022-12-29T15:56:43.134Z,101625.00
2022-12-29T15:59:25.658Z,101615.59
2022-12-29T16:02:07.119Z,101605.88
2022-12-29T16:04:54.270Z,101610.78
2022-12-29T16:07:39.189Z,101612.53
2022-12-29T16:10:28.208Z,101594.75
2022-12-29T16:12:55.034Z,101603.94
2022-12-29T16:15:24.993Z,101591.06
2022-12-29T16:17:54.847Z,101582.28
2022-12-29T16:20:35.670Z,101604.00
2022-12-29T16:23:02.477Z,101601.75
2022-12-29T16:25:33.064Z,101600.31
2022-12-29T16:28:00.518Z,101600.88
2022-12-29T16:30:33.897Z,101608.38
2022-12-29T16:33:06.248Z,101610.00
2022-12-29T16:35:45.022Z,101616.72
2022-12-29T16:38:23.986Z,101615.34
2022-12-29T16:41:03.626Z,101620.94
2022-12-29T16:43:37.009Z,101611.25
2022-12-29T16:46:03.681Z,101607.59
2022-12-29T16:48:44.513Z,101607.09
2022-12-29T16:51:16.585Z,101611.78
2022-12-29T16:53:50.707Z,101601.97
2022-12-29T16:56:24.217Z,101605.09
2022-12-29T16:59:12.202Z,101605.59
2022-12-29T17:01:41.374Z,101605.88
2022-12-29T17:04:14.679Z,101602.03
2022-12-29T17:06:42.072Z,101598.75
2022-12-29T17:09:28.817Z,101607.03
2022-12-29T17:12:10.342Z,101616.81
2022-12-29T17:14:52.107Z,101608.38
2022-12-29T17:17:37.053Z,101590.00
2022-12-29T17:20:38.158Z,101590.72
2022-12-29T17:23:17.552Z,101600.44
2022-12-29T17:25:54.157Z,101607.72
2022-12-29T17:28:31.642Z,101603.88
2022-12-29T17:31:04.105Z,101601.13
2022-12-29T17:33:36.705Z,101601.41
2022-12-29T17:36:03.540Z,101604.22
2022-12-29T17:38:32.420Z,101599.13
2022-12-29T17:40:59.827Z,101602.19
2022-12-29T17:43:33.054Z,101598.66
2022-12-29T17:46:09.131Z,101606.50
2022-12-29T17:48:37.628Z,101606.84
2022-12-29T17:51:04.363Z,101608.97
2022-12-29T17:53:31.499Z,101600.31
2022-12-29T17:55:58.597Z,101613.03
2022-12-29T17:58:30.342Z,101619.97
2022-12-29T18:01:06.074Z,101608.97
2022-12-29T18:03:38.913Z,101607.31
2022-12-29T18:06:10.914Z,101614.94
2022-12-29T18:08:39.739Z,101611.06
2022-12-29T18:11:25.260Z,101611.47
2022-12-29T18:13:53.769Z,101611.84
2022-12-29T18:16:22.204Z,101610.31
2022-12-29T18:18:50.282Z,101611.84
2022-12-29T18:21:20.398Z,101605.22
2022-12-29T18:23:48.609Z,101607.31
2022-12-29T18:26:28.329Z,101596.16
2022-12-29T18:28:57.036Z,101602.59
2022-12-29T18:31:26.536Z,101601.00
2022-12-29T18:33:54.879Z,101595.34
2022-12-29T18:36:21.980Z,101599.56
2022-12-29T18:38:51.971Z,101592.63
2022-12-29T18:41:32.448Z,101595.88
2022-12-29T18:44:00.877Z,101600.03
2022-12-29T18:46:27.717Z,101604.97
2022-12-29T18:48:54.760Z,101597.25
2022-12-29T18:51:24.075Z,101595.25
2022-12-29T18:53:51.790Z,101595.44
2022-12-29T18:56:24.309Z,101595.13
2022-12-29T18:58:51.831Z,101600.31
2022-12-29T19:01:21.279Z,101590.75
2022-12-29T19:03:48.692Z,101595.88
2022-12-29T19:06:17.267Z,101600.72
2022-12-29T19:08:44.284Z,101600.78
2022-12-29T19:11:14.083Z,101594.69
2022-12-29T19:13:42.815Z,101595.09
2022-12-29T19:16:18.926Z,101605.03
2022-12-29T19:18:50.901Z,101598.66
2022-12-29T19:21:21.458Z,101596.84
2022-12-29T19:23:48.749Z,101600.44
2022-12-29T19:26:30.430Z,101605.81
2022-12-29T19:28:57.203Z,101605.06
2022-12-29T19:31:24.410Z,101605.41
2022-12-29T19:33:53.793Z,101597.25
2022-12-29T19:36:21.831Z,101599.53
2022-12-29T19:38:56.383Z,101604.41
2022-12-29T19:41:23.804Z,101616.81
2022-12-29T19:43:50.623Z,101622.06
2022-12-29T19:46:19.295Z,101619.34
2022-12-29T19:48:46.297Z,101615.59
2022-12-29T19:51:15.164Z,101619.34
2022-12-29T19:53:42.036Z,101617.28
2022-12-29T19:56:12.187Z,101621.72
2022-12-29T19:58:45.191Z,101613.75
2022-12-29T20:01:19.972Z,101619.22
2022-12-29T20:03:48.673Z,101624.56
2022-12-29T20:06:19.491Z,101616.59
2022-12-29T20:08:46.383Z,101627.13
2022-12-29T20:11:17.083Z,101620.38
2022-12-29T20:13:45.234Z,101621.22
2022-12-29T20:16:18.287Z,101616.22
2022-12-29T20:18:46.223Z,101619.44
2022-12-29T20:21:16.191Z,101621.09
2022-12-29T20:23:45.240Z,101627.56
2022-12-29T20:26:25.811Z,101627.88
2022-12-29T20:28:54.959Z,101639.59
2022-12-29T20:31:28.426Z,101633.56
2022-12-29T20:33:55.510Z,101627.81
2022-12-29T20:36:27.413Z,101630.22
2022-12-29T20:38:57.999Z,101631.84
2022-12-29T20:41:28.693Z,101622.59
2022-12-29T20:43:58.944Z,101621.78
2022-12-29T20:46:32.884Z,101618.88
2022-12-29T20:49:05.024Z,101612.00
2022-12-29T20:52:03.914Z,101619.31
2022-12-29T20:54:21.890Z,101627.47
2022-12-29T20:56:48.975Z,101618.06
2022-12-29T20:59:31.765Z,101618.50
2022-12-29T21:01:58.733Z,101622.94
2022-12-29T21:04:26.552Z,101622.81
2022-12-29T21:06:53.387Z,101610.63
2022-12-29T21:09:25.900Z,101612.34
2022-12-29T21:11:52.645Z,101614.31
2022-12-29T21:14:19.385Z,101610.75
2022-12-29T21:16:48.925Z,101599.56
2022-12-29T21:19:16.203Z,101602.25
2022-12-29T21:21:43.035Z,101599.34
2022-12-29T21:24:12.134Z,101594.44
2022-12-29T21:26:38.798Z,101589.34
2022-12-29T21:29:08.463Z,101585.94
2022-12-29T21:31:38.106Z,101578.66
2022-12-29T21:34:06.145Z,101575.47
2022-12-29T21:36:33.912Z,101582.13
2022-12-29T21:39:00.774Z,101592.56
2022-12-29T21:41:27.547Z,101596.00
2022-12-29T21:43:58.679Z,101600.00
2022-12-29T21:46:25.602Z,101589.38
2022-12-29T21:48:52.365Z,101587.44
2022-12-29T21:51:18.983Z,101583.97
2022-12-29T21:53:45.698Z,101588.94
2022-12-29T21:56:19.197Z,101586.84
2022-12-29T21:58:48.698Z,101589.25
2022-12-29T22:01:15.517Z,101580.22
2022-12-29T22:03:44.975Z,101587.81
2022-12-29T22:06:11.736Z,101584.66
2022-12-29T22:08:39.462Z,101583.97
2022-12-29T22:11:08.514Z,101582.09
2022-12-29T22:13:37.841Z,101568.78
2022-12-29T22:16:09.495Z,101566.91
2022-12-29T22:18:37.222Z,101573.63
2022-12-29T22:21:05.685Z,101567.56
2022-12-29T22:23:32.339Z,101572.16
2022-12-29T22:26:11.080Z,101565.91
2022-12-29T22:28:39.523Z,101570.03
2022-12-29T22:31:38.680Z,101561.16
2022-12-29T22:34:07.839Z,101559.22
2022-12-29T22:36:34.904Z,101555.06
2022-12-29T22:39:01.729Z,101558.25
2022-12-29T22:41:29.517Z,101559.91
2022-12-29T22:43:56.311Z,101553.50
2022-12-29T22:46:23.154Z,101545.91
2022-12-29T22:48:50.417Z,101549.22
2022-12-29T22:51:21.372Z,101544.63
2022-12-29T22:53:53.479Z,101544.94
2022-12-29T22:56:23.519Z,101541.91
2022-12-29T22:58:50.390Z,101548.56
2022-12-29T23:01:27.918Z,101553.97
2022-12-29T23:04:10.981Z,101554.94
2022-12-29T23:06:44.757Z,101548.56
2022-12-29T23:09:17.556Z,101549.81
2022-12-29T23:11:45.068Z,101538.31
2022-12-29T23:14:11.727Z,101544.88
2022-12-29T23:16:38.618Z,101545.53
2022-12-29T23:19:05.679Z,101543.72
2022-12-29T23:21:32.444Z,101542.97
2022-12-29T23:23:59.429Z,101545.59
2022-12-29T23:26:32.437Z,101540.41
2022-12-29T23:29:03.176Z,101530.78
2022-12-29T23:31:34.108Z,101527.25
2022-12-29T23:34:02.747Z,101529.94
2022-12-29T23:36:33.076Z,101525.38
2022-12-29T23:38:59.996Z,101514.16
2022-12-29T23:41:27.451Z,101512.00
2022-12-29T23:43:54.841Z,101508.38
2022-12-29T23:46:27.051Z,101502.59
2022-12-29T23:48:54.075Z,101503.72
2022-12-29T23:51:20.855Z,101503.94
2022-12-29T23:53:50.793Z,101501.09
2022-12-29T23:56:20.392Z,101495.59
2022-12-29T23:58:49.453Z,101498.06
